sensor_id;sensor_type;location;lat;lon;timestamp;pressure;altitude;pressure_sealevel;temperature;humidity
63819;BME280;49970;54.976;73.248;2023-03-23T00:00:07;100115.78;;;-2.04;75.43
63819;BME280;49970;54.976;73.248;2023-03-23T00:02:36;100101.97;;;-2.04;75.07
63819;BME280;49970;54.976;73.248;2023-03-23T00:05:07;100093.34;;;-2.05;75.00
63819;BME280;49970;54.976;73.248;2023-03-23T00:07:34;100079.53;;;-2.07;74.80
63819;BME280;49970;54.976;73.248;2023-03-23T00:10:01;100094.13;;;-2.03;74.76
63819;BME280;49970;54.976;73.248;2023-03-23T00:12:33;100085.56;;;-2.05;74.95
63819;BME280;49970;54.976;73.248;2023-03-23T00:15:09;100081.28;;;-2.07;74.54
63819;BME280;49970;54.976;73.248;2023-03-23T00:17:39;100090.81;;;-2.09;74.51
63819;BME280;49970;54.976;73.248;2023-03-23T00:20:10;100069.38;;;-2.17;74.98
63819;BME280;49970;54.976;73.248;2023-03-23T00:22:38;100083.25;;;-2.18;74.63
63819;BME280;49970;54.976;73.248;2023-03-23T00:25:05;100094.47;;;-2.18;74.77
63819;BME280;49970;54.976;73.248;2023-03-23T00:27:31;100089.38;;;-2.21;74.56
63819;BME280;49970;54.976;73.248;2023-03-23T00:29:58;100079.06;;;-2.24;74.65
63819;BME280;49970;54.976;73.248;2023-03-23T00:32:25;100079.19;;;-2.30;74.48
63819;BME280;49970;54.976;73.248;2023-03-23T00:35:00;100081.75;;;-2.29;74.75
63819;BME280;49970;54.976;73.248;2023-03-23T00:37:29;100070.59;;;-2.32;74.62
63819;BME280;49970;54.976;73.248;2023-03-23T00:39:55;100072.41;;;-2.36;74.63
63819;BME280;49970;54.976;73.248;2023-03-23T00:42:23;100066.41;;;-2.38;75.01
63819;BME280;49970;54.976;73.248;2023-03-23T00:44:50;100057.00;;;-2.43;74.87
63819;BME280;49970;54.976;73.248;2023-03-23T00:47:29;100065.75;;;-2.47;74.63
63819;BME280;49970;54.976;73.248;2023-03-23T00:49:57;100057.22;;;-2.53;74.63
63819;BME280;49970;54.976;73.248;2023-03-23T00:52:24;100061.59;;;-2.56;74.87
63819;BME280;49970;54.976;73.248;2023-03-23T00:54:51;100066.00;;;-2.60;74.65
63819;BME280;49970;54.976;73.248;2023-03-23T00:57:23;100061.81;;;-2.65;74.53
63819;BME280;49970;54.976;73.248;2023-03-23T00:59:51;100051.59;;;-2.71;74.72
63819;BME280;49970;54.976;73.248;2023-03-23T01:02:23;100043.03;;;-2.75;74.82
63819;BME280;49970;54.976;73.248;2023-03-23T01:04:51;100035.28;;;-2.78;74.68
63819;BME280;49970;54.976;73.248;2023-03-23T01:07:30;100034.50;;;-2.82;74.68
63819;BME280;49970;54.976;73.248;2023-03-23T01:10:02;100029.38;;;-2.85;74.57
63819;BME280;49970;54.976;73.248;2023-03-23T01:12:29;100032.00;;;-2.86;74.66
63819;BME280;49970;54.976;73.248;2023-03-23T01:15:06;100025.19;;;-2.90;74.85
63819;BME280;49970;54.976;73.248;2023-03-23T01:17:43;100014.88;;;-2.92;74.83
63819;BME280;49970;54.976;73.248;2023-03-23T01:20:11;100014.88;;;-2.93;74.69
63819;BME280;49970;54.976;73.248;2023-03-23T01:22:39;100010.63;;;-2.96;74.73
63819;BME280;49970;54.976;73.248;2023-03-23T01:25:07;99993.44;;;-3.00;74.67
63819;BME280;49970;54.976;73.248;2023-03-23T01:27:34;99996.13;;;-3.05;74.94
63819;BME280;49970;54.976;73.248;2023-03-23T01:30:05;99996.88;;;-3.01;74.88
63819;BME280;49970;54.976;73.248;2023-03-23T01:32:42;99993.44;;;-3.02;74.61
63819;BME280;49970;54.976;73.248;2023-03-23T01:35:09;99991.75;;;-3.03;74.80
63819;BME280;49970;54.976;73.248;2023-03-23T01:37:36;100000.47;;;-3.05;74.56
63819;BME280;49970;54.976;73.248;2023-03-23T01:40:03;100003.84;;;-3.03;74.66
63819;BME280;49970;54.976;73.248;2023-03-23T01:42:39;100015.00;;;-2.99;74.67
63819;BME280;49970;54.976;73.248;2023-03-23T01:45:30;100013.22;;;-2.97;74.34
63819;BME280;49970;54.976;73.248;2023-03-23T01:51:06;99991.69;;;-2.99;74.00
63819;BME280;49970;54.976;73.248;2023-03-23T01:53:52;99983.06;;;-3.00;73.87
63819;BME280;49970;54.976;73.248;2023-03-23T01:56:27;99988.28;;;-3.02;73.57
63819;BME280;49970;54.976;73.248;2023-03-23T01:58:56;99980.53;;;-3.03;73.73
63819;BME280;49970;54.976;73.248;2023-03-23T02:01:35;99976.16;;;-3.01;74.23
63819;BME280;49970;54.976;73.248;2023-03-23T02:04:16;99982.22;;;-3.01;73.66
63819;BME280;49970;54.976;73.248;2023-03-23T02:06:44;99967.59;;;-3.03;73.86
63819;BME280;49970;54.976;73.248;2023-03-23T02:09:18;99962.34;;;-3.02;73.71
63819;BME280;49970;54.976;73.248;2023-03-23T02:11:48;99963.28;;;-3.04;73.31
63819;BME280;49970;54.976;73.248;2023-03-23T02:14:28;99973.56;;;-3.01;73.57
63819;BME280;49970;54.976;73.248;2023-03-23T02:17:00;99977.84;;;-2.98;73.73
63819;BME280;49970;54.976;73.248;2023-03-23T02:25:59;99975.19;;;-2.95;73.63
63819;BME280;49970;54.976;73.248;2023-03-23T02:28:42;99982.91;;;-2.92;73.74
63819;BME280;49970;54.976;73.248;2023-03-23T02:31:32;99968.06;;;-2.84;74.02
63819;BME280;49970;54.976;73.248;2023-03-23T02:34:05;99967.88;;;-2.77;73.81
63819;BME280;49970;54.976;73.248;2023-03-23T02:36:47;99977.94;;;-2.63;74.09
63819;BME280;49970;54.976;73.248;2023-03-23T02:39:23;99975.09;;;-2.52;74.15
63819;BME280;49970;54.976;73.248;2023-03-23T02:42:11;99980.00;;;-2.40;73.82
63819;BME280;49970;54.976;73.248;2023-03-23T02:44:42;99979.75;;;-2.29;73.54
63819;BME280;49970;54.976;73.248;2023-03-23T02:47:15;99982.13;;;-2.20;73.54
63819;BME280;49970;54.976;73.248;2023-03-23T02:49:44;99986.22;;;-2.11;73.39
63819;BME280;49970;54.976;73.248;2023-03-23T02:52:16;99972.22;;;-2.04;73.42
63819;BME280;49970;54.976;73.248;2023-03-23T02:54:56;99966.84;;;-1.98;73.33
63819;BME280;49970;54.976;73.248;2023-03-23T02:57:24;99979.78;;;-1.95;73.53
63819;BME280;49970;54.976;73.248;2023-03-23T02:59:54;99983.09;;;-1.90;73.68
63819;BME280;49970;54.976;73.248;2023-03-23T03:02:25;99978.59;;;-1.83;73.52
63819;BME280;49970;54.976;73.248;2023-03-23T03:05:17;99975.00;;;-1.78;73.77
63819;BME280;49970;54.976;73.248;2023-03-23T03:10:48;99972.91;;;-1.65;74.20
63819;BME280;49970;54.976;73.248;2023-03-23T03:13:34;99977.16;;;-1.61;74.15
63819;BME280;49970;54.976;73.248;2023-03-23T03:21:54;99986.38;;;-1.51;74.40
63819;BME280;49970;54.976;73.248;2023-03-23T03:24:29;99981.28;;;-1.54;74.59
63819;BME280;49970;54.976;73.248;2023-03-23T03:26:59;99975.91;;;-1.47;74.55
63819;BME280;49970;54.976;73.248;2023-03-23T03:29:55;99987.13;;;-1.45;74.74
63819;BME280;49970;54.976;73.248;2023-03-23T03:32:40;99987.91;;;-1.42;74.97
63819;BME280;49970;54.976;73.248;2023-03-23T03:35:15;99972.34;;;-1.43;74.75
63819;BME280;49970;54.976;73.248;2023-03-23T03:37:42;99976.75;;;-1.45;74.65
63819;BME280;49970;54.976;73.248;2023-03-23T03:40:12;99982.78;;;-1.45;75.23
63819;BME280;49970;54.976;73.248;2023-03-23T03:42:45;99974.13;;;-1.45;75.42
63819;BME280;49970;54.976;73.248;2023-03-23T03:45:16;99956.75;;;-1.43;75.67
63819;BME280;49970;54.976;73.248;2023-03-23T03:47:43;99965.44;;;-1.44;75.54
63819;BME280;49970;54.976;73.248;2023-03-23T03:50:10;99951.75;;;-1.51;75.30
63819;BME280;49970;54.976;73.248;2023-03-23T03:52:37;99966.22;;;-1.41;75.90
63819;BME280;49970;54.976;73.248;2023-03-23T03:55:10;99951.44;;;-1.39;75.60
63819;BME280;49970;54.976;73.248;2023-03-23T03:57:40;99946.22;;;-1.37;76.05
63819;BME280;49970;54.976;73.248;2023-03-23T04:00:36;99948.75;;;-1.36;76.36
63819;BME280;49970;54.976;73.248;2023-03-23T04:03:12;99956.47;;;-1.33;76.11
63819;BME280;49970;54.976;73.248;2023-03-23T04:06:03;99953.03;;;-1.35;76.12
63819;BME280;49970;54.976;73.248;2023-03-23T04:08:36;99969.25;;;-1.25;76.10
63819;BME280;49970;54.976;73.248;2023-03-23T04:11:04;99970.13;;;-1.26;76.26
63819;BME280;49970;54.976;73.248;2023-03-23T04:13:42;99958.22;;;-1.33;76.69
63819;BME280;49970;54.976;73.248;2023-03-23T04:16:18;99969.41;;;-1.31;76.71
63819;BME280;49970;54.976;73.248;2023-03-23T04:18:50;99981.34;;;-1.26;76.69
63819;BME280;49970;54.976;73.248;2023-03-23T04:21:17;99983.09;;;-1.24;76.89
63819;BME280;49970;54.976;73.248;2023-03-23T04:23:52;99990.88;;;-1.24;77.16
63819;BME280;49970;54.976;73.248;2023-03-23T04:26:29;99993.38;;;-1.21;77.30
63819;BME280;49970;54.976;73.248;2023-03-23T04:29:07;99989.91;;;-1.20;77.82
63819;BME280;49970;54.976;73.248;2023-03-23T04:31:34;99990.69;;;-1.17;77.83
63819;BME280;49970;54.976;73.248;2023-03-23T04:34:22;99987.13;;;-1.14;77.81
63819;BME280;49970;54.976;73.248;2023-03-23T04:37:01;100000.88;;;-1.11;78.59
63819;BME280;49970;54.976;73.248;2023-03-23T04:39:30;99994.75;;;-1.08;78.54
63819;BME280;49970;54.976;73.248;2023-03-23T04:42:00;100008.50;;;-1.05;78.96
63819;BME280;49970;54.976;73.248;2023-03-23T04:44:58;99998.97;;;-1.04;79.27
63819;BME280;49970;54.976;73.248;2023-03-23T04:47:41;99999.81;;;-1.04;79.30
63819;BME280;49970;54.976;73.248;2023-03-23T04:50:21;100017.16;;;-1.04;80.23
63819;BME280;49970;54.976;73.248;2023-03-23T04:53:02;100013.03;;;-1.11;80.66
63819;BME280;49970;54.976;73.248;2023-03-23T04:55:33;100022.56;;;-1.12;81.54
63819;BME280;49970;54.976;73.248;2023-03-23T04:58:06;100033.94;;;-1.16;81.87
63819;BME280;49970;54.976;73.248;2023-03-23T05:00:44;100033.13;;;-1.18;82.06
63819;BME280;49970;54.976;73.248;2023-03-23T05:03:16;100029.75;;;-1.21;83.00
63819;BME280;49970;54.976;73.248;2023-03-23T05:05:45;100040.19;;;-1.23;83.98
63819;BME280;49970;54.976;73.248;2023-03-23T05:08:20;100034.22;;;-1.27;85.04
63819;BME280;49970;54.976;73.248;2023-03-23T05:10:56;100042.00;;;-1.25;85.53
63819;BME280;49970;54.976;73.248;2023-03-23T05:13:24;100050.53;;;-1.21;86.43
63819;BME280;49970;54.976;73.248;2023-03-23T05:15:54;100050.53;;;-1.21;86.91
63819;BME280;49970;54.976;73.248;2023-03-23T05:18:21;100040.19;;;-1.23;87.25
63819;BME280;49970;54.976;73.248;2023-03-23T05:20:48;100051.28;;;-1.16;87.98
63819;BME280;49970;54.976;73.248;2023-03-23T05:23:18;100058.19;;;-1.15;88.39
63819;BME280;49970;54.976;73.248;2023-03-23T05:25:55;100060.72;;;-1.14;88.52
63819;BME280;49970;54.976;73.248;2023-03-23T05:28:23;100061.56;;;-1.12;89.19
63819;BME280;49970;54.976;73.248;2023-03-23T05:31:00;100065.81;;;-1.09;89.38
63819;BME280;49970;54.976;73.248;2023-03-23T05:33:41;100054.56;;;-1.10;89.87
63819;BME280;49970;54.976;73.248;2023-03-23T05:36:15;100069.22;;;-1.07;90.13
63819;BME280;49970;54.976;73.248;2023-03-23T05:39:10;100065.72;;;-1.06;90.04
63819;BME280;49970;54.976;73.248;2023-03-23T05:42:01;100067.41;;;-1.04;89.61
63819;BME280;49970;54.976;73.248;2023-03-23T05:44:42;100074.25;;;-1.01;89.87
63819;BME280;49970;54.976;73.248;2023-03-23T05:47:13;100070.66;;;-0.95;90.25
63819;BME280;49970;54.976;73.248;2023-03-23T05:49:51;100075.72;;;-0.91;90.62
63819;BME280;49970;54.976;73.248;2023-03-23T05:52:20;100078.19;;;-0.86;91.33
63819;BME280;49970;54.976;73.248;2023-03-23T05:54:53;100083.31;;;-0.83;91.15
63819;BME280;49970;54.976;73.248;2023-03-23T05:57:21;100078.84;;;-0.80;91.46
63819;BME280;49970;54.976;73.248;2023-03-23T06:00:01;100075.25;;;-0.76;91.85
63819;BME280;49970;54.976;73.248;2023-03-23T06:02:39;100086.41;;;-0.70;91.75
63819;BME280;49970;54.976;73.248;2023-03-23T06:05:10;100085.38;;;-0.65;91.91
63819;BME280;49970;54.976;73.248;2023-03-23T06:07:39;100091.28;;;-0.60;92.07
63819;BME280;49970;54.976;73.248;2023-03-23T06:10:06;100100.69;;;-0.56;91.82
63819;BME280;49970;54.976;73.248;2023-03-23T06:12:39;100099.72;;;-0.52;91.71
63819;BME280;49970;54.976;73.248;2023-03-23T06:15:14;100101.38;;;-0.49;92.26
63819;BME280;49970;54.976;73.248;2023-03-23T06:18:04;100108.84;;;-0.37;92.22
63819;BME280;49970;54.976;73.248;2023-03-23T06:20:38;100103.44;;;-0.31;92.00
63819;BME280;49970;54.976;73.248;2023-03-23T06:23:31;100118.81;;;-0.23;92.37
63819;BME280;49970;54.976;73.248;2023-03-23T06:26:00;100116.03;;;-0.17;92.61
63819;BME280;49970;54.976;73.248;2023-03-23T06:28:27;100119.38;;;-0.12;92.56
63819;BME280;49970;54.976;73.248;2023-03-23T06:30:54;100117.56;;;-0.10;92.35
63819;BME280;49970;54.976;73.248;2023-03-23T06:33:21;100123.44;;;-0.03;92.20
63819;BME280;49970;54.976;73.248;2023-03-23T06:36:32;100128.22;;;0.11;92.71
63819;BME280;49970;54.976;73.248;2023-03-23T06:39:10;100125.31;;;0.20;92.29
63819;BME280;49970;54.976;73.248;2023-03-23T06:42:00;100123.41;;;0.25;92.84
63819;BME280;49970;54.976;73.248;2023-03-23T06:44:30;100124.00;;;0.33;92.18
63819;BME280;49970;54.976;73.248;2023-03-23T06:47:06;100123.63;;;0.45;92.69
63819;BME280;49970;54.976;73.248;2023-03-23T06:49:36;100130.25;;;0.56;93.07
63819;BME280;49970;54.976;73.248;2023-03-23T06:52:18;100132.47;;;0.66;92.77
63819;BME280;49970;54.976;73.248;2023-03-23T06:54:46;100134.94;;;0.71;92.43
63819;BME280;49970;54.976;73.248;2023-03-23T06:57:13;100128.88;;;0.70;92.24
63819;BME280;49970;54.976;73.248;2023-03-23T06:59:52;100122.56;;;0.78;92.39
63819;BME280;49970;54.976;73.248;2023-03-23T07:02:22;100148.31;;;0.87;91.90
63819;BME280;49970;54.976;73.248;2023-03-23T07:05:00;100138.56;;;0.92;92.31
63819;BME280;49970;54.976;73.248;2023-03-23T07:07:27;100153.09;;;1.01;92.67
63819;BME280;49970;54.976;73.248;2023-03-23T07:10:09;100155.69;;;1.01;92.24
63819;BME280;49970;54.976;73.248;2023-03-23T07:12:40;100154.69;;;1.05;91.88
63819;BME280;49970;54.976;73.248;2023-03-23T07:15:09;100159.00;;;1.04;91.66
63819;BME280;49970;54.976;73.248;2023-03-23T07:17:39;100160.75;;;1.05;91.87
63819;BME280;49970;54.976;73.248;2023-03-23T07:20:19;100165.72;;;1.11;91.85
63819;BME280;49970;54.976;73.248;2023-03-23T07:22:45;100164.03;;;1.10;91.79
63819;BME280;49970;54.976;73.248;2023-03-23T07:25:29;100172.78;;;1.09;91.45
63819;BME280;49970;54.976;73.248;2023-03-23T07:28:04;100171.09;;;1.07;91.63
63819;BME280;49970;54.976;73.248;2023-03-23T07:30:35;100179.94;;;1.03;90.96
63819;BME280;49970;54.976;73.248;2023-03-23T07:33:05;100176.66;;;0.97;91.00
63819;BME280;49970;54.976;73.248;2023-03-23T07:35:32;100185.31;;;0.98;91.38
63819;BME280;49970;54.976;73.248;2023-03-23T07:38:05;100180.94;;;0.98;91.02
63819;BME280;49970;54.976;73.248;2023-03-23T07:40:33;100184.25;;;1.04;91.34
63819;BME280;49970;54.976;73.248;2023-03-23T07:43:05;100197.88;;;1.12;91.41
63819;BME280;49970;54.976;73.248;2023-03-23T07:45:52;100186.44;;;1.16;91.45
63819;BME280;49970;54.976;73.248;2023-03-23T07:48:21;100192.31;;;1.22;91.02
63819;BME280;49970;54.976;73.248;2023-03-23T07:50:47;100193.16;;;1.23;90.55
63819;BME280;49970;54.976;73.248;2023-03-23T07:53:15;100199.06;;;1.28;91.27
63819;BME280;49970;54.976;73.248;2023-03-23T07:55:44;100196.25;;;1.34;90.90
63819;BME280;49970;54.976;73.248;2023-03-23T07:58:22;100205.63;;;1.40;91.05
63819;BME280;49970;54.976;73.248;2023-03-23T08:00:53;100205.53;;;1.43;90.65
63819;BME280;49970;54.976;73.248;2023-03-23T08:03:34;100195.13;;;1.41;90.60
63819;BME280;49970;54.976;73.248;2023-03-23T08:06:12;100208.81;;;1.48;90.22
63819;BME280;49970;54.976;73.248;2023-03-23T08:08:57;100214.97;;;1.45;89.99
63819;BME280;49970;54.976;73.248;2023-03-23T08:11:57;100214.97;;;1.45;89.87
63819;BME280;49970;54.976;73.248;2023-03-23T08:14:59;100219.25;;;1.48;89.62
63819;BME280;49970;54.976;73.248;2023-03-23T08:17:43;100217.38;;;1.52;89.60
63819;BME280;49970;54.976;73.248;2023-03-23T08:20:42;100221.69;;;1.53;88.62
63819;BME280;49970;54.976;73.248;2023-03-23T08:23:36;100225.16;;;1.53;88.56
63819;BME280;49970;54.976;73.248;2023-03-23T08:26:21;100234.66;;;1.56;88.68
63819;BME280;49970;54.976;73.248;2023-03-23T08:28:48;100234.50;;;1.59;88.14
63819;BME280;49970;54.976;73.248;2023-03-23T08:31:32;100228.25;;;1.64;87.92
63819;BME280;49970;54.976;73.248;2023-03-23T08:34:19;100237.72;;;1.67;86.96
63819;BME280;49970;54.976;73.248;2023-03-23T08:37:11;100243.84;;;1.66;86.86
63819;BME280;49970;54.976;73.248;2023-03-23T08:39:57;100249.88;;;1.68;86.68
63819;BME280;49970;54.976;73.248;2023-03-23T08:42:26;100257.53;;;1.72;86.31
63819;BME280;49970;54.976;73.248;2023-03-23T08:45:06;100261.75;;;1.77;85.76
63819;BME280;49970;54.976;73.248;2023-03-23T08:47:53;100263.38;;;1.79;85.28
63819;BME280;49970;54.976;73.248;2023-03-23T08:50:39;100269.59;;;1.77;83.80
63819;BME280;49970;54.976;73.248;2023-03-23T08:53:20;100275.69;;;1.75;83.71
63819;BME280;49970;54.976;73.248;2023-03-23T08:56:03;100274.16;;;1.70;83.20
63819;BME280;49970;54.976;73.248;2023-03-23T08:58:52;100287.13;;;1.73;82.51
63819;BME280;49970;54.976;73.248;2023-03-23T09:01:38;100280.97;;;1.74;82.33
63819;BME280;49970;54.976;73.248;2023-03-23T09:04:27;100284.34;;;1.78;81.71
63819;BME280;49970;54.976;73.248;2023-03-23T09:07:17;100281.72;;;1.78;80.80
63819;BME280;49970;54.976;73.248;2023-03-23T09:09:43;100287.81;;;1.78;80.73
63819;BME280;49970;54.976;73.248;2023-03-23T09:12:10;100286.09;;;1.77;80.20
63819;BME280;49970;54.976;73.248;2023-03-23T09:14:42;100295.69;;;1.77;79.52
63819;BME280;49970;54.976;73.248;2023-03-23T09:17:10;100287.00;;;1.76;79.68
63819;BME280;49970;54.976;73.248;2023-03-23T09:19:36;100297.47;;;1.76;79.85
63819;BME280;49970;54.976;73.248;2023-03-23T09:22:02;100300.00;;;1.78;79.95
63819;BME280;49970;54.976;73.248;2023-03-23T09:24:30;100296.47;;;1.79;79.17
63819;BME280;49970;54.976;73.248;2023-03-23T09:26:57;100309.53;;;1.79;79.33
63819;BME280;49970;54.976;73.248;2023-03-23T09:29:28;100314.59;;;1.83;79.02
63819;BME280;49970;54.976;73.248;2023-03-23T09:31:54;100317.22;;;1.83;79.11
63819;BME280;49970;54.976;73.248;2023-03-23T09:34:22;100317.22;;;1.83;78.45
63819;BME280;49970;54.976;73.248;2023-03-23T09:36:49;100318.13;;;1.82;78.81
63819;BME280;49970;54.976;73.248;2023-03-23T09:39:15;100326.78;;;1.84;78.33
63819;BME280;49970;54.976;73.248;2023-03-23T09:44:41;100331.19;;;1.82;78.25
63819;BME280;49970;54.976;73.248;2023-03-23T09:50:06;100339.84;;;1.84;77.64
63819;BME280;49970;54.976;73.248;2023-03-23T09:52:51;100345.25;;;1.78;76.38
63819;BME280;49970;54.976;73.248;2023-03-23T09:55:19;100351.53;;;1.72;76.36
63819;BME280;49970;54.976;73.248;2023-03-23T09:57:59;100347.16;;;1.73;76.10
63819;BME280;49970;54.976;73.248;2023-03-23T10:00:33;100357.72;;;1.70;74.85
63819;BME280;49970;54.976;73.248;2023-03-23T10:03:17;100357.78;;;1.68;75.30
63819;BME280;49970;54.976;73.248;2023-03-23T10:05:47;100356.19;;;1.63;75.25
63819;BME280;49970;54.976;73.248;2023-03-23T10:08:25;100356.88;;;1.69;75.81
63819;BME280;49970;54.976;73.248;2023-03-23T10:13:36;100363.03;;;1.67;75.22
63819;BME280;49970;54.976;73.248;2023-03-23T10:16:15;100359.53;;;1.68;74.94
63819;BME280;49970;54.976;73.248;2023-03-23T10:18:51;100351.91;;;1.62;74.05
63819;BME280;49970;54.976;73.248;2023-03-23T10:21:22;100366.47;;;1.69;73.49
63819;BME280;49970;54.976;73.248;2023-03-23T10:26:42;100377.00;;;1.66;74.16
63819;BME280;49970;54.976;73.248;2023-03-23T10:32:03;100390.03;;;1.67;74.66
63819;BME280;49970;54.976;73.248;2023-03-23T10:35:19;100387.41;;;1.67;74.18
63819;BME280;49970;54.976;73.248;2023-03-23T10:37:44;100388.25;;;1.68;74.57
63819;BME280;49970;54.976;73.248;2023-03-23T10:40:16;100397.88;;;1.66;73.88
63819;BME280;49970;54.976;73.248;2023-03-23T10:42:44;100410.16;;;1.64;73.83
63819;BME280;49970;54.976;73.248;2023-03-23T10:45:23;100416.31;;;1.61;74.01
63819;BME280;49970;54.976;73.248;2023-03-23T10:50:30;100415.31;;;1.65;75.41
63819;BME280;49970;54.976;73.248;2023-03-23T10:52:58;100421.22;;;1.70;75.21
63819;BME280;49970;54.976;73.248;2023-03-23T10:55:39;100429.72;;;1.77;74.83
63819;BME280;49970;54.976;73.248;2023-03-23T10:58:22;100427.13;;;1.77;74.97
63819;BME280;49970;54.976;73.248;2023-03-23T11:00:50;100429.66;;;1.79;75.56
63819;BME280;49970;54.976;73.248;2023-03-23T11:05:56;100442.47;;;1.86;76.43
63819;BME280;49970;54.976;73.248;2023-03-23T11:08:31;100436.41;;;1.86;76.39
63819;BME280;49970;54.976;73.248;2023-03-23T11:11:25;100435.56;;;1.85;75.31
63819;BME280;49970;54.976;73.248;2023-03-23T11:13:58;100441.78;;;1.81;75.24
63819;BME280;49970;54.976;73.248;2023-03-23T11:16:30;100438.41;;;1.78;74.94
63819;BME280;49970;54.976;73.248;2023-03-23T11:18:59;100444.78;;;1.69;73.19
63819;BME280;49970;54.976;73.248;2023-03-23T11:21:26;100453.72;;;1.62;72.19
63819;BME280;49970;54.976;73.248;2023-03-23T11:23:58;100455.56;;;1.58;72.21
63819;BME280;49970;54.976;73.248;2023-03-23T11:26:35;100455.72;;;1.54;72.39
63819;BME280;49970;54.976;73.248;2023-03-23T11:29:13;100472.28;;;1.53;72.54
63819;BME280;49970;54.976;73.248;2023-03-23T11:31:43;100459.44;;;1.46;72.23
63819;BME280;49970;54.976;73.248;2023-03-23T11:36:40;100482.94;;;1.46;71.94
63819;BME280;49970;54.976;73.248;2023-03-23T11:39:56;100485.56;;;1.45;71.52
63819;BME280;49970;54.976;73.248;2023-03-23T11:42:26;100484.72;;;1.44;71.80
63819;BME280;49970;54.976;73.248;2023-03-23T11:45:30;100490.03;;;1.41;70.89
63819;BME280;49970;54.976;73.248;2023-03-23T11:50:56;100498.84;;;1.37;71.35
63819;BME280;49970;54.976;73.248;2023-03-23T11:56:29;100490.38;;;1.29;71.59
63819;BME280;49970;54.976;73.248;2023-03-23T11:58:58;100508.56;;;1.32;71.99
63819;BME280;49970;54.976;73.248;2023-03-23T12:08:06;100507.88;;;1.27;72.17
63819;BME280;49970;54.976;73.248;2023-03-23T12:10:41;100506.25;;;1.23;71.79
63819;BME280;49970;54.976;73.248;2023-03-23T12:13:57;100514.00;;;1.24;72.30
63819;BME280;49970;54.976;73.248;2023-03-23T12:16:44;100521.81;;;1.26;72.22
63819;BME280;49970;54.976;73.248;2023-03-23T12:21:56;100527.03;;;1.26;72.75
63819;BME280;49970;54.976;73.248;2023-03-23T12:27:30;100531.44;;;1.24;73.63
63819;BME280;49970;54.976;73.248;2023-03-23T12:35:23;100538.53;;;1.19;73.63
63819;BME280;49970;54.976;73.248;2023-03-23T12:38:13;100536.97;;;1.13;74.39
63819;BME280;49970;54.976;73.248;2023-03-23T12:48:52;100555.78;;;0.93;74.70
63819;BME280;49970;54.976;73.248;2023-03-23T12:51:39;100559.41;;;0.88;74.68
63819;BME280;49970;54.976;73.248;2023-03-23T12:54:28;100566.34;;;0.89;75.37
63819;BME280;49970;54.976;73.248;2023-03-23T12:57:19;100569.03;;;0.86;75.27
63819;BME280;49970;54.976;73.248;2023-03-23T13:00:12;100568.97;;;0.87;75.45
63819;BME280;49970;54.976;73.248;2023-03-23T13:02:50;100575.03;;;0.88;75.50
63819;BME280;49970;54.976;73.248;2023-03-23T13:08:17;100582.88;;;0.88;76.05
63819;BME280;49970;54.976;73.248;2023-03-23T13:10:47;100582.00;;;0.87;76.05
63819;BME280;49970;54.976;73.248;2023-03-23T13:13:48;100596.88;;;0.85;76.16
63819;BME280;49970;54.976;73.248;2023-03-23T13:16:55;100605.66;;;0.81;76.13
63819;BME280;49970;54.976;73.248;2023-03-23T13:25:47;100605.13;;;0.67;76.60
63819;BME280;49970;54.976;73.248;2023-03-23T13:28:19;100615.63;;;0.65;76.79
63819;BME280;49970;54.976;73.248;2023-03-23T13:31:10;100614.81;;;0.63;76.37
63819;BME280;49970;54.976;73.248;2023-03-23T13:33:37;100623.50;;;0.62;76.47
63819;BME280;49970;54.976;73.248;2023-03-23T13:36:10;100626.22;;;0.59;76.84
63819;BME280;49970;54.976;73.248;2023-03-23T13:38:38;100622.78;;;0.57;76.98
63819;BME280;49970;54.976;73.248;2023-03-23T13:41:11;100625.38;;;0.57;76.73
63819;BME280;49970;54.976;73.248;2023-03-23T13:44:27;100627.31;;;0.51;76.84
63819;BME280;49970;54.976;73.248;2023-03-23T13:47:06;100634.22;;;0.52;76.87
63819;BME280;49970;54.976;73.248;2023-03-23T13:49:32;100642.94;;;0.51;77.30
63819;BME280;49970;54.976;73.248;2023-03-23T13:52:06;100649.88;;;0.50;77.53
63819;BME280;49970;54.976;73.248;2023-03-23T13:54:43;100652.47;;;0.50;77.52
63819;BME280;49970;54.976;73.248;2023-03-23T13:57:24;100654.22;;;0.51;77.68
63819;BME280;49970;54.976;73.248;2023-03-23T13:59:56;100654.22;;;0.51;77.36
63819;BME280;49970;54.976;73.248;2023-03-23T14:02:41;100662.00;;;0.53;76.84
63819;BME280;49970;54.976;73.248;2023-03-23T14:05:35;100667.19;;;0.53;77.00
63819;BME280;49970;54.976;73.248;2023-03-23T14:13:20;100675.13;;;0.48;77.13
63819;BME280;49970;54.976;73.248;2023-03-23T14:16:19;100682.13;;;0.46;77.37
63819;BME280;49970;54.976;73.248;2023-03-23T14:19:19;100680.41;;;0.45;77.24
63819;BME280;49970;54.976;73.248;2023-03-23T14:21:54;100689.03;;;0.48;77.06
63819;BME280;49970;54.976;73.248;2023-03-23T14:24:33;100688.16;;;0.48;76.81
63819;BME280;49970;54.976;73.248;2023-03-23T14:29:31;100696.78;;;0.50;77.00
63819;BME280;49970;54.976;73.248;2023-03-23T14:32:15;100706.34;;;0.51;77.30
63819;BME280;49970;54.976;73.248;2023-03-23T14:34:43;100705.44;;;0.52;76.80
63819;BME280;49970;54.976;73.248;2023-03-23T14:37:13;100701.97;;;0.52;76.55
63819;BME280;49970;54.976;73.248;2023-03-23T14:39:45;100713.25;;;0.52;76.99
63819;BME280;49970;54.976;73.248;2023-03-23T14:42:14;100711.50;;;0.53;77.09
63819;BME280;49970;54.976;73.248;2023-03-23T14:44:44;100707.16;;;0.53;77.10
63819;BME280;49970;54.976;73.248;2023-03-23T14:47:25;100717.56;;;0.55;76.75
63819;BME280;49970;54.976;73.248;2023-03-23T14:49:58;100709.75;;;0.55;76.62
63819;BME280;49970;54.976;73.248;2023-03-23T14:52:29;100715.81;;;0.55;76.83
63819;BME280;49970;54.976;73.248;2023-03-23T14:55:15;100707.13;;;0.55;76.70
63819;BME280;49970;54.976;73.248;2023-03-23T14:57:42;100713.19;;;0.55;76.72
63819;BME280;49970;54.976;73.248;2023-03-23T15:00:17;100711.44;;;0.56;76.58